Time;durP1;ratioP1;P1;durP2;ratioP2;P2;SDS_P1;SDS_P2;PMS_P1;PMS_P2;Temp;Humidity;BMP_temperature;BMP_pressure;BME280_temperature;BME280_humidity;BME280_pressure;Samples;Min_cycle;Max_cycle;Signal;HPM_P1;HPM_P2
2021/06/25 00:01:43;;;;;;;6.13;4.47;;;;;;;;;;5087136;28;20103;-48
2021/06/25 00:04:09;;;;;;;7.88;4.13;;;;;;;;;;5078493;28;20021;-48
2021/06/25 00:06:35;;;;;;;5.40;3.90;;;;;;;;;;5072714;28;20020;-47
2021/06/25 00:09:01;;;;;;;6.22;4.47;;;;;;;;;;5084815;28;20088;-47
2021/06/25 00:11:27;;;;;;;6.15;3.72;;;;;;;;;;5092010;28;20085;-48
2021/06/25 00:13:54;;;;;;;5.53;4.22;;;;;;;;;;5091873;28;20036;-47
2021/06/25 00:16:20;;;;;;;6.15;4.45;;;;;;;;;;5091519;28;20027;-47
2021/06/25 00:18:46;;;;;;;8.35;4.80;;;;;;;;;;5091231;28;20024;-48
2021/06/25 00:21:12;;;;;;;5.63;4.57;;;;;;;;;;5076059;28;20024;-47
2021/06/25 00:23:38;;;;;;;6.47;4.15;;;;;;;;;;5087251;28;20025;-51
2021/06/25 00:26:04;;;;;;;4.97;4.15;;;;;;;;;;5083784;28;20032;-49
2021/06/25 00:28:30;;;;;;;5.00;3.65;;;;;;;;;;5084857;28;20021;-48
2021/06/25 00:30:56;;;;;;;5.60;4.35;;;;;;;;;;5085303;28;20560;-48
2021/06/25 00:33:22;;;;;;;4.20;3.67;;;;;;;;;;5086541;28;20028;-48
2021/06/25 00:35:48;;;;;;;6.00;4.35;;;;;;;;;;5095693;28;20066;-48
2021/06/25 00:38:14;;;;;;;8.60;5.07;;;;;;;;;;5077206;28;20028;-48
2021/06/25 00:40:40;;;;;;;7.45;4.65;;;;;;;;;;5095872;28;20099;-48
2021/06/25 00:43:06;;;;;;;4.93;4.30;;;;;;;;;;5088070;28;20520;-47
2021/06/25 00:45:32;;;;;;;6.68;4.63;;;;;;;;;;5082806;28;20107;-47
2021/06/25 00:47:58;;;;;;;5.95;4.00;;;;;;;;;;5083859;28;20442;-48
2021/06/25 00:50:26;;;;;;;6.20;4.40;;;;;;;;;;5092376;28;20114;-48
2021/06/25 00:52:53;;;;;;;4.70;4.15;;;;;;;;;;5094416;28;20468;-47
2021/06/25 00:55:20;;;;;;;6.80;4.38;;;;;;;;;;5077725;28;20032;-48
2021/06/25 00:57:46;;;;;;;5.65;4.13;;;;;;;;;;5082993;28;20078;-47
2021/06/25 01:00:12;;;;;;;6.57;4.07;;;;;;;;;;5076622;28;20111;-47
2021/06/25 01:02:38;;;;;;;6.30;4.15;;;;;;;;;;5093562;28;20093;-51
2021/06/25 01:05:05;;;;;;;7.25;4.57;;;;;;;;;;5095702;28;20028;-49
2021/06/25 01:07:31;;;;;;;5.68;4.68;;;;;;;;;;5094984;28;20099;-51
2021/06/25 01:09:58;;;;;;;6.55;4.65;;;;;;;;;;5094998;28;20547;-53
2021/06/25 01:12:24;;;;;;;4.88;4.15;;;;;;;;;;5095691;28;20059;-49
2021/06/25 01:14:50;;;;;;;6.07;4.70;;;;;;;;;;5095150;28;20043;-51
2021/06/25 01:17:32;;;;;;;5.38;4.30;;;;;;;;;;5094103;28;20036;-50
2021/06/25 01:19:59;;;;;;;8.27;4.25;;;;;;;;;;5077321;28;20028;-51
2021/06/25 01:22:26;;;;;;;5.35;4.20;;;;;;;;;;5084208;28;20027;-50
2021/06/25 01:24:52;;;;;;;6.18;4.03;;;;;;;;;;5076395;28;20070;-49
2021/06/25 01:27:18;;;;;;;6.75;5.28;;;;;;;;;;5094641;28;20036;-50
2021/06/25 01:29:44;;;;;;;6.75;4.55;;;;;;;;;;5094230;28;20056;-50
2021/06/25 01:32:09;;;;;;;5.93;4.32;;;;;;;;;;5083263;28;20460;-52
2021/06/25 01:34:35;;;;;;;6.05;4.18;;;;;;;;;;5092342;28;20081;-49
2021/06/25 01:37:02;;;;;;;6.47;4.05;;;;;;;;;;5093513;28;20055;-51
2021/06/25 01:39:28;;;;;;;6.40;4.70;;;;;;;;;;5091532;28;20460;-51
2021/06/25 01:41:54;;;;;;;6.10;4.22;;;;;;;;;;5083733;28;20103;-50
2021/06/25 01:44:21;;;;;;;6.15;4.30;;;;;;;;;;5078434;28;20028;-51
2021/06/25 01:46:47;;;;;;;5.90;4.50;;;;;;;;;;5085504;28;20032;-52
2021/06/25 01:49:14;;;;;;;7.13;5.65;;;;;;;;;;5088210;28;20102;-49
2021/06/25 01:51:39;;;;;;;5.93;5.18;;;;;;;;;;5086226;28;20472;-51
2021/06/25 01:54:05;;;;;;;6.00;4.70;;;;;;;;;;5086335;28;20040;-50
2021/06/25 01:56:31;;;;;;;5.55;4.32;;;;;;;;;;5084121;28;20468;-50
2021/06/25 01:58:57;;;;;;;6.78;4.80;;;;;;;;;;5084451;28;20060;-50
2021/06/25 02:01:23;;;;;;;5.78;4.35;;;;;;;;;;5078556;28;20029;-50
2021/06/25 02:03:49;;;;;;;6.57;4.20;;;;;;;;;;5084795;28;20428;-49
2021/06/25 02:06:16;;;;;;;5.68;4.38;;;;;;;;;;5080864;28;20028;-50
2021/06/25 02:08:42;;;;;;;5.28;4.45;;;;;;;;;;5077434;28;20456;-49
2021/06/25 02:11:09;;;;;;;6.03;5.43;;;;;;;;;;5094314;28;20503;-49
2021/06/25 02:13:35;;;;;;;7.38;4.72;;;;;;;;;;5093638;28;20032;-49
2021/06/25 02:16:01;;;;;;;5.43;4.93;;;;;;;;;;5093731;28;20047;-49
2021/06/25 02:18:27;;;;;;;5.20;4.65;;;;;;;;;;5090015;28;20029;-50
2021/06/25 02:20:53;;;;;;;7.05;4.05;;;;;;;;;;5076930;28;20032;-49
2021/06/25 02:23:19;;;;;;;6.18;4.60;;;;;;;;;;5075838;28;20032;-54
2021/06/25 02:25:45;;;;;;;4.95;4.10;;;;;;;;;;5083952;28;20535;-50
2021/06/25 02:28:11;;;;;;;6.15;5.07;;;;;;;;;;5093330;28;20032;-50
2021/06/25 02:30:38;;;;;;;5.78;4.78;;;;;;;;;;5083990;28;20131;-50
2021/06/25 02:33:04;;;;;;;6.15;5.30;;;;;;;;;;5093500;28;20119;-50
2021/06/25 02:35:30;;;;;;;7.85;4.60;;;;;;;;;;5093316;28;20119;-49
2021/06/25 02:37:56;;;;;;;6.25;4.65;;;;;;;;;;5074899;28;20031;-49
2021/06/25 02:40:23;;;;;;;7.47;5.28;;;;;;;;;;5092718;28;20077;-49
2021/06/25 02:42:49;;;;;;;6.28;5.25;;;;;;;;;;5093050;28;20028;-51
2021/06/25 02:45:15;;;;;;;5.70;5.07;;;;;;;;;;5092519;28;20089;-49
2021/06/25 02:47:41;;;;;;;7.60;5.60;;;;;;;;;;5089658;28;20103;-49
2021/06/25 02:50:08;;;;;;;7.72;5.85;;;;;;;;;;5076315;28;20463;-50
2021/06/25 02:52:35;;;;;;;7.60;5.75;;;;;;;;;;5084637;28;20020;-49
2021/06/25 02:55:01;;;;;;;5.72;5.18;;;;;;;;;;5082327;28;20032;-50
2021/06/25 02:57:27;;;;;;;7.75;6.07;;;;;;;;;;5083577;28;20043;-49
2021/06/25 02:59:53;;;;;;;7.32;5.32;;;;;;;;;;5093148;28;20023;-50
2021/06/25 03:02:19;;;;;;;5.82;5.03;;;;;;;;;;5078176;28;20043;-50
2021/06/25 03:04:44;;;;;;;6.45;5.10;;;;;;;;;;5093176;28;20052;-49
2021/06/25 03:07:10;;;;;;;6.72;5.07;;;;;;;;;;5092921;28;20028;-49
2021/06/25 03:09:37;;;;;;;9.10;5.40;;;;;;;;;;5082788;28;20480;-50
2021/06/25 03:12:03;;;;;;;7.07;4.82;;;;;;;;;;5072936;28;20093;-53
2021/06/25 03:14:29;;;;;;;7.72;5.63;;;;;;;;;;5082453;28;20030;-50
2021/06/25 03:16:55;;;;;;;8.45;5.78;;;;;;;;;;5089125;28;20036;-50
2021/06/25 03:19:21;;;;;;;6.22;4.90;;;;;;;;;;5092718;28;20058;-54
2021/06/25 03:21:47;;;;;;;8.45;5.72;;;;;;;;;;5086468;28;20089;-50
2021/06/25 03:24:13;;;;;;;7.18;5.38;;;;;;;;;;5090832;28;20036;-52
2021/06/25 03:26:39;;;;;;;5.57;4.97;;;;;;;;;;5091178;28;20092;-50
2021/06/25 03:29:05;;;;;;;8.02;5.38;;;;;;;;;;5081633;28;20043;-50
2021/06/25 03:31:32;;;;;;;6.88;5.00;;;;;;;;;;5086383;28;20048;-50
2021/06/25 03:33:58;;;;;;;6.07;4.97;;;;;;;;;;5092336;28;20036;-50
2021/06/25 03:36:24;;;;;;;8.48;5.28;;;;;;;;;;5079943;28;20039;-50
2021/06/25 03:38:50;;;;;;;7.68;4.78;;;;;;;;;;5084039;28;20024;-49
2021/06/25 03:41:17;;;;;;;6.45;5.10;;;;;;;;;;5075301;28;20475;-49
2021/06/25 03:43:43;;;;;;;8.85;5.80;;;;;;;;;;5073253;28;20032;-49
2021/06/25 03:46:09;;;;;;;9.10;4.85;;;;;;;;;;5088269;28;20026;-51
2021/06/25 03:48:35;;;;;;;6.90;5.40;;;;;;;;;;5078714;28;20025;-50
2021/06/25 03:51:01;;;;;;;7.78;5.63;;;;;;;;;;5083915;28;20383;-51
2021/06/25 03:53:27;;;;;;;7.05;5.72;;;;;;;;;;5085135;28;20104;-49
2021/06/25 03:56:12;;;;;;;6.90;5.35;;;;;;;;;;5080132;28;20357;-49
2021/06/25 03:58:45;;;;;;;11.93;5.30;;;;;;;;;;5074371;28;20028;-49
2021/06/25 04:01:11;;;;;;;5.80;4.60;;;;;;;;;;5072262;28;20395;-53
2021/06/25 04:03:38;;;;;;;6.60;5.18;;;;;;;;;;5072176;28;20039;-51
2021/06/25 04:06:04;;;;;;;5.72;4.47;;;;;;;;;;5076089;28;20032;-50
2021/06/25 04:08:31;;;;;;;5.85;5.25;;;;;;;;;;5080819;28;20368;-50
2021/06/25 04:10:58;;;;;;;8.45;5.53;;;;;;;;;;5092083;28;20028;-50
2021/06/25 04:13:24;;;;;;;5.75;5.10;;;;;;;;;;5092035;28;20028;-50
2021/06/25 04:15:50;;;;;;;8.88;6.45;;;;;;;;;;5085672;28;20131;-52
2021/06/25 04:18:16;;;;;;;7.00;5.45;;;;;;;;;;5085794;28;20134;-53
2021/06/25 04:20:43;;;;;;;10.52;6.93;;;;;;;;;;5092029;28;20028;-49
2021/06/25 04:23:10;;;;;;;10.05;7.07;;;;;;;;;;5087387;28;20557;-50
2021/06/25 04:25:36;;;;;;;10.02;6.90;;;;;;;;;;5078930;28;20153;-50
2021/06/25 04:28:03;;;;;;;8.70;6.68;;;;;;;;;;5088690;28;20123;-52
2021/06/25 04:30:29;;;;;;;9.25;7.65;;;;;;;;;;5091499;28;20071;-50
2021/06/25 04:32:58;;;;;;;8.38;6.70;;;;;;;;;;5081339;28;20031;-50
2021/06/25 04:35:24;;;;;;;12.88;7.20;;;;;;;;;;5076968;28;20028;-49
2021/06/25 04:37:50;;;;;;;9.57;6.68;;;;;;;;;;5091893;28;20111;-53
2021/06/25 04:40:16;;;;;;;11.63;6.35;;;;;;;;;;5091959;28;20537;-49
2021/06/25 04:42:42;;;;;;;8.48;6.75;;;;;;;;;;5081903;28;20030;-50
2021/06/25 04:45:08;;;;;;;11.75;6.90;;;;;;;;;;5074640;28;20099;-49
2021/06/25 04:47:34;;;;;;;11.80;6.85;;;;;;;;;;5082871;28;20052;-50
2021/06/25 04:50:00;;;;;;;10.05;6.10;;;;;;;;;;5084355;28;20086;-50
2021/06/25 04:52:26;;;;;;;9.10;5.85;;;;;;;;;;5084343;28;20104;-50
2021/06/25 04:54:52;;;;;;;8.93;6.50;;;;;;;;;;5088152;28;20028;-49
2021/06/25 04:57:18;;;;;;;10.05;6.88;;;;;;;;;;5088238;28;20039;-49
2021/06/25 04:59:44;;;;;;;8.88;6.13;;;;;;;;;;5071781;28;20029;-49
2021/06/25 05:02:10;;;;;;;6.45;5.30;;;;;;;;;;5072146;28;20074;-49
2021/06/25 05:04:36;;;;;;;8.57;5.80;;;;;;;;;;5086443;28;20029;-50
2021/06/25 05:07:02;;;;;;;7.22;5.70;;;;;;;;;;5073482;28;20525;-50
2021/06/25 05:09:30;;;;;;;8.73;5.95;;;;;;;;;;5091069;28;20036;-48
2021/06/25 05:11:56;;;;;;;7.55;6.00;;;;;;;;;;5077411;28;20025;-48
2021/06/25 05:14:22;;;;;;;7.60;5.72;;;;;;;;;;5078355;28;20484;-48
2021/06/25 05:16:48;;;;;;;7.57;5.57;;;;;;;;;;5083688;28;20196;-48
2021/06/25 05:19:14;;;;;;;10.65;5.70;;;;;;;;;;5087885;28;20020;-49
2021/06/25 05:21:40;;;;;;;9.00;5.75;;;;;;;;;;5076193;28;20024;-48
2021/06/25 05:24:06;;;;;;;8.88;6.38;;;;;;;;;;5086516;28;20029;-49
2021/06/25 05:26:32;;;;;;;11.55;6.65;;;;;;;;;;5086198;28;20115;-48
2021/06/25 05:28:58;;;;;;;13.25;7.32;;;;;;;;;;5077480;28;20116;-48
2021/06/25 05:31:24;;;;;;;11.02;6.50;;;;;;;;;;5076420;28;20044;-49
2021/06/25 05:33:50;;;;;;;11.88;7.05;;;;;;;;;;5094530;28;20461;-49
2021/06/25 05:36:16;;;;;;;9.30;5.97;;;;;;;;;;5094805;28;20028;-49
2021/06/25 05:38:42;;;;;;;9.32;6.60;;;;;;;;;;5085880;28;20032;-49
2021/06/25 05:41:09;;;;;;;11.75;6.05;;;;;;;;;;5079092;28;20034;-49
2021/06/25 05:43:35;;;;;;;14.07;7.70;;;;;;;;;;5085859;28;20028;-50
2021/06/25 05:46:01;;;;;;;10.23;6.85;;;;;;;;;;5091634;28;20032;-48
2021/06/25 05:48:27;;;;;;;13.13;7.03;;;;;;;;;;5082870;28;20028;-48
2021/06/25 05:50:53;;;;;;;12.50;6.88;;;;;;;;;;5088623;28;20440;-50
2021/06/25 05:53:19;;;;;;;10.98;7.68;;;;;;;;;;5082838;28;20107;-48
2021/06/25 05:55:45;;;;;;;12.35;7.28;;;;;;;;;;5079401;28;20032;-49
2021/06/25 05:58:12;;;;;;;15.50;8.52;;;;;;;;;;5079578;28;20025;-48
2021/06/25 06:00:38;;;;;;;10.32;6.32;;;;;;;;;;5082443;28;20026;-49
2021/06/25 06:03:04;;;;;;;12.10;7.10;;;;;;;;;;5087579;28;20058;-48
2021/06/25 06:05:30;;;;;;;10.40;6.80;;;;;;;;;;5081064;28;20475;-49
2021/06/25 06:07:56;;;;;;;9.38;6.40;;;;;;;;;;5087797;28;20102;-49
2021/06/25 06:10:22;;;;;;;11.57;6.68;;;;;;;;;;5078599;28;20103;-48
2021/06/25 06:12:48;;;;;;;12.68;7.28;;;;;;;;;;5084107;28;20499;-49
2021/06/25 06:15:18;;;;;;;11.23;6.97;;;;;;;;;;5090151;28;20044;-48
2021/06/25 06:17:48;;;;;;;10.75;6.78;;;;;;;;;;5084695;28;20115;-49
2021/06/25 06:20:21;;;;;;;10.68;6.40;;;;;;;;;;5087591;28;20028;-49
2021/06/25 06:31:12;;;;;;;10.02;6.72;;;;;;;;;;5084634;28;20104;-48
2021/06/25 06:33:48;;;;;;;14.50;6.40;;;;;;;;;;5082864;28;20361;-48
2021/06/25 06:36:22;;;;;;;10.30;7.25;;;;;;;;;;5090945;28;20032;-52
2021/06/25 06:38:48;;;;;;;11.65;6.68;;;;;;;;;;5073595;28;20036;-50
2021/06/25 06:41:14;;;;;;;10.32;6.88;;;;;;;;;;5080381;28;20098;-48
2021/06/25 06:43:41;;;;;;;9.75;6.38;;;;;;;;;;5093294;28;20024;-49
2021/06/25 06:46:09;;;;;;;9.70;6.13;;;;;;;;;;5088330;28;20511;-50
2021/06/25 06:48:35;;;;;;;9.45;6.80;;;;;;;;;;5092430;28;20108;-50
2021/06/25 06:51:01;;;;;;;8.70;5.95;;;;;;;;;;5092317;28;20024;-49
2021/06/25 06:53:27;;;;;;;12.05;6.95;;;;;;;;;;5083419;28;20043;-48
2021/06/25 06:55:53;;;;;;;9.60;6.32;;;;;;;;;;5077588;28;20036;-49
2021/06/25 06:58:22;;;;;;;10.90;6.43;;;;;;;;;;5085632;28;20028;-48
2021/06/25 07:00:48;;;;;;;8.68;6.28;;;;;;;;;;5091823;28;20103;-49
2021/06/25 07:03:14;;;;;;;11.77;6.47;;;;;;;;;;5092954;28;20732;-48
2021/06/25 07:05:43;;;;;;;11.50;7.13;;;;;;;;;;5084217;28;20024;-48
2021/06/25 07:08:09;;;;;;;12.10;6.57;;;;;;;;;;5087823;28;20053;-48
2021/06/25 07:10:35;;;;;;;8.43;6.15;;;;;;;;;;5071696;28;20024;-48
2021/06/25 07:13:01;;;;;;;11.70;6.22;;;;;;;;;;5090638;28;20163;-49
2021/06/25 07:15:27;;;;;;;7.85;5.95;;;;;;;;;;5084054;28;20036;-48
2021/06/25 07:17:53;;;;;;;10.27;5.93;;;;;;;;;;5079819;28;20048;-47
2021/06/25 07:20:19;;;;;;;12.00;6.07;;;;;;;;;;5091247;28;20078;-48
2021/06/25 07:22:45;;;;;;;8.57;5.93;;;;;;;;;;5089471;28;20407;-48
2021/06/25 07:25:11;;;;;;;9.82;5.28;;;;;;;;;;5084087;28;20443;-48
2021/06/25 07:27:38;;;;;;;6.22;4.13;;;;;;;;;;5082776;28;20033;-47
2021/06/25 07:30:05;;;;;;;8.15;4.68;;;;;;;;;;5091534;28;20104;-48
2021/06/25 07:32:31;;;;;;;10.15;5.47;;;;;;;;;;5092242;28;20111;-49
2021/06/25 07:34:57;;;;;;;12.20;5.15;;;;;;;;;;5085862;28;20135;-49
2021/06/25 07:37:24;;;;;;;12.15;4.50;;;;;;;;;;5086730;28;20062;-48
2021/06/25 07:39:50;;;;;;;10.40;5.22;;;;;;;;;;5086735;28;20116;-48
2021/06/25 07:42:16;;;;;;;12.18;4.35;;;;;;;;;;5091577;28;20429;-48
2021/06/25 07:44:42;;;;;;;8.45;3.75;;;;;;;;;;5089903;28;20016;-48
2021/06/25 07:47:08;;;;;;;6.50;3.28;;;;;;;;;;5089510;28;20032;-47
2021/06/25 07:49:34;;;;;;;9.82;4.32;;;;;;;;;;5079929;28;20112;-48
2021/06/25 07:52:00;;;;;;;8.35;4.50;;;;;;;;;;5089389;28;20035;-48
2021/06/25 07:54:30;;;;;;;9.30;4.25;;;;;;;;;;5085545;28;20043;-49
2021/06/25 07:56:55;;;;;;;7.65;4.30;;;;;;;;;;5087508;28;20028;-48
2021/06/25 07:59:22;;;;;;;11.20;5.22;;;;;;;;;;5079979;28;20024;-47
2021/06/25 08:01:48;;;;;;;6.72;3.88;;;;;;;;;;5078299;28;20563;-48
2021/06/25 08:04:14;;;;;;;4.88;4.32;;;;;;;;;;5088673;28;20058;-48
2021/06/25 08:06:39;;;;;;;6.35;4.35;;;;;;;;;;5083175;28;20032;-48
2021/06/25 08:09:07;;;;;;;10.80;4.18;;;;;;;;;;5071137;28;20468;-48
2021/06/25 08:11:33;;;;;;;7.70;4.82;;;;;;;;;;5082281;28;20472;-51
2021/06/25 08:13:59;;;;;;;5.53;3.38;;;;;;;;;;5085495;28;20059;-48
2021/06/25 08:16:25;;;;;;;6.68;4.05;;;;;;;;;;5083292;28;20029;-48
2021/06/25 08:18:57;;;;;;;8.70;5.00;;;;;;;;;;5085970;28;20379;-49
2021/06/25 08:21:23;;;;;;;7.65;4.63;;;;;;;;;;5091645;28;20059;-51
2021/06/25 08:23:49;;;;;;;6.85;4.60;;;;;;;;;;5090858;28;20047;-48
2021/06/25 08:26:15;;;;;;;9.20;5.00;;;;;;;;;;5091498;28;20096;-50
2021/06/25 08:28:41;;;;;;;6.18;4.00;;;;;;;;;;5089002;28;20028;-48
2021/06/25 08:31:07;;;;;;;6.00;4.03;;;;;;;;;;5084292;28;20052;-50
2021/06/25 08:33:33;;;;;;;9.43;3.95;;;;;;;;;;5077953;28;20060;-48
2021/06/25 08:35:59;;;;;;;7.80;4.50;;;;;;;;;;5085410;28;20028;-52
2021/06/25 08:38:25;;;;;;;11.80;4.18;;;;;;;;;;5089895;28;20028;-48
2021/06/25 08:40:51;;;;;;;8.25;4.40;;;;;;;;;;5089701;28;20031;-48
2021/06/25 08:43:17;;;;;;;7.65;4.15;;;;;;;;;;5079010;28;20112;-49
2021/06/25 08:45:44;;;;;;;20.90;7.65;;;;;;;;;;5091362;28;20035;-48
2021/06/25 08:48:10;;;;;;;12.07;4.93;;;;;;;;;;5094482;28;20028;-48
2021/06/25 08:50:40;;;;;;;24.70;11.25;;;;;;;;;;5087806;28;20081;-48
2021/06/25 08:53:06;;;;;;;6.32;3.85;;;;;;;;;;5085966;28;20476;-47
2021/06/25 08:55:33;;;;;;;10.55;4.50;;;;;;;;;;5095186;28;20429;-48
2021/06/25 08:57:59;;;;;;;6.28;4.03;;;;;;;;;;5095077;28;20430;-48
2021/06/25 09:00:25;;;;;;;7.03;4.32;;;;;;;;;;5092555;28;20036;-48
2021/06/25 09:02:51;;;;;;;7.63;3.85;;;;;;;;;;5094210;28;20814;-50
2021/06/25 09:05:22;;;;;;;6.38;3.78;;;;;;;;;;5094438;28;20042;-47
2021/06/25 09:07:49;;;;;;;5.68;3.88;;;;;;;;;;5095053;28;20542;-48
2021/06/25 09:10:16;;;;;;;8.05;4.38;;;;;;;;;;5094760;28;20127;-49
2021/06/25 09:13:01;;;;;;;7.10;4.30;;;;;;;;;;5086909;28;20403;-48
2021/06/25 09:15:29;;;;;;;7.00;3.85;;;;;;;;;;5088954;28;20040;-47
2021/06/25 09:17:57;;;;;;;7.43;4.10;;;;;;;;;;5094333;28;20055;-48
2021/06/25 09:20:36;;;;;;;7.25;4.95;;;;;;;;;;5079675;28;20028;-49
2021/06/25 09:23:03;;;;;;;5.25;3.90;;;;;;;;;;5088812;28;20033;-48
2021/06/25 09:25:30;;;;;;;7.15;3.63;;;;;;;;;;5080182;28;20024;-48
2021/06/25 09:27:56;;;;;;;8.73;4.20;;;;;;;;;;5081779;28;20521;-48
2021/06/25 09:30:25;;;;;;;10.02;4.05;;;;;;;;;;5093596;28;20043;-49
2021/06/25 09:32:52;;;;;;;6.45;4.35;;;;;;;;;;5093468;28;20368;-49
2021/06/25 09:35:20;;;;;;;8.48;4.45;;;;;;;;;;5091583;28;20042;-47
2021/06/25 09:37:47;;;;;;;6.82;4.10;;;;;;;;;;5084398;28;20024;-47
2021/06/25 09:40:14;;;;;;;10.15;4.70;;;;;;;;;;5094849;28;20055;-48
2021/06/25 09:42:42;;;;;;;25.20;6.70;;;;;;;;;;5094188;28;20024;-49
2021/06/25 09:45:10;;;;;;;8.50;5.43;;;;;;;;;;5084488;28;20097;-48
2021/06/25 09:47:36;;;;;;;10.10;5.10;;;;;;;;;;5088061;28;20491;-49
2021/06/25 09:50:14;;;;;;;7.15;4.90;;;;;;;;;;5090558;28;20105;-48
2021/06/25 09:52:50;;;;;;;8.73;5.00;;;;;;;;;;5075284;28;20535;-48
2021/06/25 09:55:56;;;;;;;6.60;4.50;;;;;;;;;;5093915;28;20032;-47
2021/06/25 09:58:36;;;;;;;7.05;4.38;;;;;;;;;;5084802;28;20048;-48
2021/06/25 10:01:23;;;;;;;5.78;4.10;;;;;;;;;;5074508;28;20479;-48
2021/06/25 10:03:57;;;;;;;8.95;4.50;;;;;;;;;;5080322;28;20039;-47
2021/06/25 10:06:30;;;;;;;10.88;3.60;;;;;;;;;;5080063;28;20507;-48
2021/06/25 10:08:56;;;;;;;;;;;;;;;;;;5094834;28;20028;-48
2021/06/25 10:11:24;;;;;;;11.25;4.45;;;;;;;;;;5090880;28;19908;-48
2021/06/25 10:13:51;;;;;;;7.97;4.72;;;;;;;;;;5082206;28;20112;-49
2021/06/25 10:16:17;;;;;;;7.57;4.65;;;;;;;;;;5086137;28;20044;-49
2021/06/25 10:18:49;;;;;;;7.30;3.88;;;;;;;;;;5081722;28;20031;-49
2021/06/25 10:21:16;;;;;;;4.30;3.28;;;;;;;;;;5092724;28;20036;-48
2021/06/25 10:23:50;;;;;;;6.43;3.38;;;;;;;;;;5088536;28;20055;-48
2021/06/25 10:26:17;;;;;;;5.00;3.20;;;;;;;;;;5081423;28;20036;-48
2021/06/25 10:28:44;;;;;;;4.68;3.20;;;;;;;;;;5084965;28;20063;-48
2021/06/25 10:31:12;;;;;;;7.07;3.58;;;;;;;;;;5094250;28;20051;-49
2021/06/25 10:33:38;;;;;;;6.22;3.38;;;;;;;;;;5091808;28;20496;-48
2021/06/25 10:36:09;;;;;;;6.78;3.08;;;;;;;;;;5086886;28;20162;-49
2021/06/25 10:38:35;;;;;;;3.72;2.58;;;;;;;;;;5080145;28;20027;-48
2021/06/25 10:41:03;;;;;;;6.47;3.00;;;;;;;;;;5092153;28;20031;-48
2021/06/25 10:43:38;;;;;;;8.93;2.75;;;;;;;;;;5087736;28;21175;-48
2021/06/25 10:46:04;;;;;;;5.05;2.75;;;;;;;;;;5089377;28;20071;-48
2021/06/25 10:48:37;;;;;;;4.95;2.50;;;;;;;;;;5090457;28;20058;-48
2021/06/25 10:51:35;;;;;;;3.72;2.13;;;;;;;;;;5078123;28;20040;-48
2021/06/25 10:54:14;;;;;;;3.50;2.80;;;;;;;;;;5037954;28;20100;-49
2021/06/25 10:56:41;;;;;;;6.38;2.42;;;;;;;;;;5087470;28;20036;-48
2021/06/25 10:59:18;;;;;;;4.07;2.70;;;;;;;;;;5081247;28;20029;-50
2021/06/25 11:01:48;;;;;;;3.45;2.08;;;;;;;;;;5087897;28;20028;-48
2021/06/25 11:04:34;;;;;;;5.05;2.25;;;;;;;;;;5086262;28;20032;-48
2021/06/25 11:07:02;;;;;;;2.63;2.20;;;;;;;;;;5079209;28;20039;-48
2021/06/25 11:09:48;;;;;;;3.92;2.30;;;;;;;;;;5079183;28;20071;-48
2021/06/25 11:12:24;;;;;;;3.10;2.17;;;;;;;;;;5090788;28;20537;-48
2021/06/25 11:14:51;;;;;;;3.72;1.98;;;;;;;;;;5066182;28;20036;-48
2021/06/25 11:17:35;;;;;;;5.90;2.90;;;;;;;;;;5084034;28;20047;-48
2021/06/25 11:20:31;;;;;;;4.53;2.72;;;;;;;;;;5090280;28;20454;-52
2021/06/25 11:23:07;;;;;;;8.85;2.65;;;;;;;;;;5066896;28;20483;-48
2021/06/25 11:25:39;;;;;;;4.95;2.33;;;;;;;;;;5075409;28;20036;-47
2021/06/25 11:28:09;;;;;;;3.38;1.98;;;;;;;;;;5085653;28;20018;-48
2021/06/25 11:31:08;;;;;;;4.30;2.55;;;;;;;;;;5083587;28;20047;-50
2021/06/25 11:33:40;;;;;;;5.57;2.55;;;;;;;;;;5022610;28;20032;-48
2021/06/25 11:36:15;;;;;;;4.85;2.50;;;;;;;;;;5090924;28;20020;-48
2021/06/25 11:39:01;;;;;;;4.70;1.95;;;;;;;;;;5088430;28;20032;-48
2021/06/25 11:41:29;;;;;;;6.25;2.70;;;;;;;;;;5088885;28;20020;-48
2021/06/25 11:43:56;;;;;;;2.53;1.90;;;;;;;;;;5088859;28;20032;-48
2021/06/25 11:46:22;;;;;;;4.82;2.10;;;;;;;;;;5079584;28;20111;-49
2021/06/25 11:48:49;;;;;;;5.45;2.22;;;;;;;;;;5082539;28;20324;-50
2021/06/25 11:51:17;;;;;;;5.90;2.58;;;;;;;;;;5078902;28;20017;-49
2021/06/25 11:53:47;;;;;;;4.57;2.58;;;;;;;;;;5081744;28;20024;-48
2021/06/25 11:56:17;;;;;;;4.03;2.33;;;;;;;;;;5082016;28;20027;-49
2021/06/25 11:58:53;;;;;;;3.83;2.03;;;;;;;;;;5087149;28;20028;-48
2021/06/25 12:01:19;;;;;;;6.30;2.25;;;;;;;;;;5078305;28;20073;-48
2021/06/25 12:03:45;;;;;;;4.10;2.70;;;;;;;;;;5090538;28;20024;-48
2021/06/25 12:06:11;;;;;;;3.55;2.10;;;;;;;;;;5090973;28;20029;-49
2021/06/25 12:08:54;;;;;;;3.92;2.20;;;;;;;;;;5069529;28;20055;-49
2021/06/25 12:11:22;;;;;;;3.63;2.45;;;;;;;;;;5091510;28;20085;-49
2021/06/25 12:13:59;;;;;;;4.38;2.40;;;;;;;;;;5090609;28;20560;-48
2021/06/25 12:16:25;;;;;;;4.13;2.50;;;;;;;;;;5084171;28;20024;-48
2021/06/25 12:18:51;;;;;;;4.43;2.40;;;;;;;;;;5054471;28;20427;-49
2021/06/25 12:21:18;;;;;;;2.72;2.13;;;;;;;;;;5091587;28;20102;-49
2021/06/25 12:23:44;;;;;;;3.45;2.25;;;;;;;;;;5085829;28;20533;-48
2021/06/25 12:26:15;;;;;;;4.88;2.33;;;;;;;;;;5084215;28;20103;-48
2021/06/25 12:28:41;;;;;;;3.33;2.25;;;;;;;;;;5091793;28;20148;-50
2021/06/25 12:31:19;;;;;;;3.15;2.30;;;;;;;;;;5090978;28;20036;-49
2021/06/25 12:33:45;;;;;;;4.00;2.08;;;;;;;;;;5088243;28;20027;-48
2021/06/25 12:36:15;;;;;;;5.35;2.38;;;;;;;;;;5091314;28;20073;-49
2021/06/25 12:38:42;;;;;;;3.08;2.20;;;;;;;;;;5083932;28;20035;-49
2021/06/25 12:41:10;;;;;;;2.38;1.98;;;;;;;;;;5089165;28;20013;-48
2021/06/25 12:43:40;;;;;;;3.45;1.98;;;;;;;;;;5088983;28;20104;-48
2021/06/25 12:46:11;;;;;;;2.60;1.80;;;;;;;;;;5088948;28;20036;-49
2021/06/25 12:48:38;;;;;;;2.55;1.83;;;;;;;;;;5078670;28;20510;-48
2021/06/25 12:51:09;;;;;;;2.85;1.90;;;;;;;;;;5086766;28;20052;-47
2021/06/25 12:53:36;;;;;;;3.28;2.20;;;;;;;;;;5090529;28;20027;-48
2021/06/25 12:56:13;;;;;;;3.60;1.80;;;;;;;;;;5090270;28;20498;-48
2021/06/25 12:58:40;;;;;;;3.85;1.90;;;;;;;;;;5088915;28;20032;-48
2021/06/25 13:01:08;;;;;;;3.35;1.90;;;;;;;;;;5085773;28;20048;-48
2021/06/25 13:03:34;;;;;;;3.20;1.98;;;;;;;;;;5090654;28;20094;-48
2021/06/25 13:06:01;;;;;;;3.47;2.08;;;;;;;;;;5083109;28;20028;-48
2021/06/25 13:08:31;;;;;;;2.72;2.10;;;;;;;;;;5090171;28;20551;-47
2021/06/25 13:11:15;;;;;;;4.65;1.80;;;;;;;;;;5082092;28;20076;-48
2021/06/25 13:13:41;;;;;;;2.22;1.45;;;;;;;;;;5089377;28;20455;-50
2021/06/25 13:16:12;;;;;;;3.47;1.40;;;;;;;;;;5084755;28;20085;-48
2021/06/25 13:18:41;;;;;;;2.60;1.50;;;;;;;;;;5083689;28;20027;-48
2021/06/25 13:21:16;;;;;;;2.35;1.80;;;;;;;;;;5080870;28;20099;-48
2021/06/25 13:23:43;;;;;;;2.67;1.77;;;;;;;;;;5082003;28;20099;-48
2021/06/25 13:26:13;;;;;;;2.45;1.90;;;;;;;;;;5078933;28;20025;-49
2021/06/25 13:28:54;;;;;;;3.05;1.65;;;;;;;;;;5079004;28;20111;-48
2021/06/25 13:31:20;;;;;;;2.92;1.52;;;;;;;;;;5080477;28;20052;-47
2021/06/25 13:33:46;;;;;;;5.22;2.05;;;;;;;;;;5087018;28;20034;-48
2021/06/25 13:36:12;;;;;;;4.53;2.28;;;;;;;;;;5089987;28;20024;-48
2021/06/25 13:38:38;;;;;;;2.42;1.80;;;;;;;;;;5089491;28;20029;-49
2021/06/25 13:41:25;;;;;;;3.88;2.03;;;;;;;;;;5090698;28;20044;-47
2021/06/25 13:43:51;;;;;;;16.25;3.92;;;;;;;;;;5086778;28;20039;-48
2021/06/25 13:46:18;;;;;;;4.30;2.25;;;;;;;;;;5087187;28;20031;-48
2021/06/25 13:48:45;;;;;;;7.90;2.90;;;;;;;;;;5081349;28;20036;-48
2021/06/25 13:51:12;;;;;;;8.90;2.47;;;;;;;;;;5083535;28;20498;-49
2021/06/25 13:53:45;;;;;;;3.58;2.20;;;;;;;;;;5083537;28;20155;-49
2021/06/25 13:56:12;;;;;;;5.97;2.22;;;;;;;;;;5083456;28;20580;-49
2021/06/25 13:58:57;;;;;;;3.03;2.05;;;;;;;;;;5092226;28;20017;-48
2021/06/25 14:01:25;;;;;;;3.70;2.22;;;;;;;;;;5091858;28;20031;-50
2021/06/25 14:03:55;;;;;;;2.83;1.90;;;;;;;;;;5083625;28;20129;-49
2021/06/25 14:06:21;;;;;;;3.20;2.15;;;;;;;;;;5083298;28;20028;-48
2021/06/25 14:08:47;;;;;;;2.63;1.60;;;;;;;;;;5084145;28;20111;-49
2021/06/25 14:11:18;;;;;;;4.47;1.88;;;;;;;;;;5084928;28;20046;-48
2021/06/25 14:13:45;;;;;;;2.10;1.63;;;;;;;;;;5081725;28;20094;-48
2021/06/25 14:16:20;;;;;;;5.93;2.15;;;;;;;;;;5079624;28;20056;-48
2021/06/25 14:18:46;;;;;;;2.42;1.83;;;;;;;;;;5087775;28;20028;-49
2021/06/25 14:21:14;;;;;;;2.67;1.85;;;;;;;;;;5075611;28;20491;-48
2021/06/25 14:23:40;;;;;;;3.88;1.85;;;;;;;;;;5083775;28;20025;-49
2021/06/25 14:26:07;;;;;;;3.38;2.35;;;;;;;;;;5081778;28;20028;-48
2021/06/25 14:28:34;;;;;;;3.03;1.77;;;;;;;;;;5081343;28;20031;-48
2021/06/25 14:31:00;;;;;;;2.72;2.10;;;;;;;;;;5084664;28;20036;-49
2021/06/25 14:33:26;;;;;;;2.47;1.65;;;;;;;;;;5085857;28;20467;-49
2021/06/25 14:35:52;;;;;;;2.80;2.10;;;;;;;;;;5092160;28;20028;-48
2021/06/25 14:38:21;;;;;;;2.83;1.90;;;;;;;;;;5079034;28;20028;-48
2021/06/25 14:40:47;;;;;;;4.05;2.20;;;;;;;;;;5082251;28;20325;-48
2021/06/25 14:43:13;;;;;;;3.47;2.35;;;;;;;;;;5081192;28;20055;-49
2021/06/25 14:45:40;;;;;;;4.20;1.95;;;;;;;;;;5079351;28;20024;-50
2021/06/25 14:48:06;;;;;;;2.13;1.65;;;;;;;;;;5083942;28;20054;-50
2021/06/25 14:50:32;;;;;;;5.57;2.38;;;;;;;;;;5092419;28;20028;-50
2021/06/25 14:52:58;;;;;;;2.80;1.88;;;;;;;;;;5091212;28;20039;-49
2021/06/25 14:55:24;;;;;;;2.80;2.10;;;;;;;;;;5089646;28;20058;-49